Time;durP1;ratioP1;P1;durP2;ratioP2;P2;SDS_P1;SDS_P2;PMS_P1;PMS_P2;Temp;Humidity;BMP_temperature;BMP_pressure;BME280_temperature;BME280_humidity;BME280_pressure;Samples;Min_cycle;Max_cycle;Signal;HPM_P1;HPM_P2
2021/05/15 00:01:22;;;;;;;6.47;2.40;;;;;;;15.42;61.73;100143.47;5032875;28;20109;-70
2021/05/15 00:03:47;;;;;;;5.50;2.25;;;;;;;15.41;61.81;100145.19;5033089;28;20025;-66
2021/05/15 00:06:13;;;;;;;5.95;2.50;;;;;;;15.59;61.81;100157.56;5032308;28;20471;-67
2021/05/15 00:08:38;;;;;;;7.05;2.80;;;;;;;15.55;61.68;100147.09;5032686;28;20018;-67
2021/05/15 00:11:06;;;;;;;5.50;2.13;;;;;;;15.61;61.84;100162.78;5031739;28;20602;-72
2021/05/15 00:13:32;;;;;;;5.57;2.28;;;;;;;15.49;62.32;100161.78;5033302;28;20025;-70
2021/05/15 00:15:57;;;;;;;9.02;2.20;;;;;;;15.26;62.62;100165.81;5034020;28;20107;-73
2021/05/15 00:18:23;;;;;;;7.60;2.63;;;;;;;14.97;63.64;100159.38;5034040;28;20512;-72
2021/05/15 00:20:48;;;;;;;8.88;2.70;;;;;;;14.99;63.33;100160.28;5033750;28;20404;-70
2021/05/15 00:23:14;;;;;;;6.90;2.92;;;;;;;14.86;64.09;100158.34;5033607;28;20464;-72
2021/05/15 00:25:40;;;;;;;7.25;2.42;;;;;;;14.79;63.60;100120.13;5033662;28;20377;-70
2021/05/15 00:28:05;;;;;;;11.93;2.83;;;;;;;14.96;63.68;100160.22;5033836;28;20029;-70
2021/05/15 00:30:31;;;;;;;8.57;2.67;;;;;;;14.85;64.30;100167.00;5033387;28;20496;-70
2021/05/15 00:32:57;;;;;;;5.28;2.70;;;;;;;14.69;64.77;100156.38;5033869;28;20578;-73
2021/05/15 00:35:22;;;;;;;8.25;2.63;;;;;;;14.78;64.65;100166.03;5033796;28;20033;-73
2021/05/15 00:37:48;;;;;;;7.40;2.90;;;;;;;14.73;64.73;100165.09;5033525;28;20132;-72
2021/05/15 00:40:14;;;;;;;4.55;2.53;;;;;;;14.78;64.39;100165.16;5015465;28;20103;-70
2021/05/15 00:42:40;;;;;;;4.95;2.63;;;;;;;14.79;64.52;100157.41;5033131;28;20499;-70
2021/05/15 00:45:08;;;;;;;6.20;3.03;;;;;;;14.89;64.50;100166.19;5033435;28;20025;-71
2021/05/15 00:47:33;;;;;;;6.13;2.88;;;;;;;15.04;63.44;100156.00;5015699;28;20033;-71
2021/05/15 00:49:59;;;;;;;5.82;3.00;;;;;;;15.10;63.27;100162.16;5014462;28;20057;-74
2021/05/15 00:52:27;;;;;;;6.55;2.83;;;;;;;15.16;63.21;100164.81;5032936;28;20062;-71
2021/05/15 00:54:54;;;;;;;5.40;3.00;;;;;;;14.86;63.06;100127.16;5033167;28;20030;-71
2021/05/15 00:57:21;;;;;;;6.60;3.05;;;;;;;15.13;63.21;100170.00;5033558;28;20109;-72
2021/05/15 00:59:46;;;;;;;9.55;3.03;;;;;;;14.92;63.33;100163.63;5032977;28;20529;-74
2021/05/15 01:02:13;;;;;;;7.20;2.88;;;;;;;14.82;63.91;100156.56;5032747;28;20022;-71
2021/05/15 01:04:39;;;;;;;7.07;2.83;;;;;;;14.59;63.64;100117.22;5032860;28;20029;-70
2021/05/15 01:07:09;;;;;;;6.55;3.08;;;;;;;14.76;64.12;100151.28;5032790;28;20035;-71
2021/05/15 01:09:35;;;;;;;6.07;3.17;;;;;;;14.71;64.24;100152.06;5032981;28;20030;-70
2021/05/15 01:12:05;;;;;;;5.78;2.92;;;;;;;14.67;64.75;100147.69;5033140;28;20490;-71
2021/05/15 01:14:35;;;;;;;5.80;3.22;;;;;;;14.50;65.47;100156.91;5032967;28;20033;-70
2021/05/15 01:17:01;;;;;;;;;;;;;;;14.48;65.73;100143.00;5033585;28;20551;-73
2021/05/15 01:19:26;;;;;;;5.45;3.13;;;;;;;14.44;66.04;100144.69;5032807;28;20009;-70
2021/05/15 01:21:52;;;;;;;5.55;3.30;;;;;;;14.47;65.99;100143.88;5032479;28;20438;-70
2021/05/15 01:27:40;;;;;;;6.82;3.13;;;;;;;14.45;65.78;100135.19;5613286;23;20065;-72
2021/05/15 01:30:06;;;;;;;6.95;3.60;;;;;;;14.50;65.98;100130.94;5021529;28;20041;-72
2021/05/15 01:32:32;;;;;;;6.65;3.53;;;;;;;14.20;65.57;100088.91;5010834;28;20459;-70
2021/05/15 01:34:58;;;;;;;8.35;4.13;;;;;;;14.56;65.64;100129.28;5013173;28;20034;-70
2021/05/15 01:37:23;;;;;;;5.30;3.95;;;;;;;14.64;65.81;100133.75;5012887;28;20428;-73
2021/05/15 01:39:49;;;;;;;7.40;4.15;;;;;;;14.49;65.47;100100.59;5013038;28;20030;-70
2021/05/15 01:42:14;;;;;;;10.43;4.28;;;;;;;14.63;66.04;100140.66;5012888;28;20088;-72
2021/05/15 01:44:39;;;;;;;8.05;4.28;;;;;;;14.57;66.61;100130.19;4995334;28;20061;-72
2021/05/15 01:47:06;;;;;;;8.23;4.40;;;;;;;14.80;66.37;100133.13;5012921;28;20107;-73
2021/05/15 01:49:32;;;;;;;11.57;4.28;;;;;;;14.79;65.82;100134.00;5013102;28;20022;-71
2021/05/15 01:51:57;;;;;;;27.08;5.05;;;;;;;14.66;66.42;100125.16;5012843;28;20041;-72
2021/05/15 01:54:23;;;;;;;33.92;6.20;;;;;;;14.61;66.89;100123.31;5012754;28;20113;-72
2021/05/15 01:56:48;;;;;;;54.90;7.13;;;;;;;14.66;66.58;100117.34;5013843;28;20029;-72
2021/05/15 01:59:13;;;;;;;19.70;4.93;;;;;;;14.59;66.28;100128.47;5032031;28;20049;-72
2021/05/15 02:01:39;;;;;;;11.23;4.70;;;;;;;14.49;66.41;100129.19;5032038;28;20105;-72
2021/05/15 02:04:04;;;;;;;11.55;4.28;;;;;;;14.53;66.09;100118.00;5032063;28;20034;-72
2021/05/15 02:06:30;;;;;;;7.65;4.15;;;;;;;14.53;65.87;100125.81;5032112;28;20084;-72
2021/05/15 02:08:55;;;;;;;9.48;4.05;;;;;;;14.54;65.47;100117.13;5032092;28;20025;-72
2021/05/15 02:11:21;;;;;;;6.25;3.90;;;;;;;14.23;64.94;100054.34;5016600;28;20026;-72
2021/05/15 02:13:48;;;;;;;7.07;4.22;;;;;;;14.45;65.26;100115.28;5011938;28;20120;-72
2021/05/15 02:16:14;;;;;;;7.28;4.35;;;;;;;14.47;65.24;100118.78;5012434;28;20026;-72
2021/05/15 02:18:39;;;;;;;10.43;4.20;;;;;;;14.38;64.43;100080.56;5012056;28;20025;-72
2021/05/15 02:21:05;;;;;;;7.35;4.00;;;;;;;14.55;63.83;100119.78;5012247;28;20049;-72
2021/05/15 02:23:32;;;;;;;9.00;3.80;;;;;;;14.59;63.69;100133.66;5011948;28;20026;-72
2021/05/15 02:25:57;;;;;;;10.52;4.03;;;;;;;14.48;63.64;100130.03;5012210;28;20080;-72
2021/05/15 02:28:23;;;;;;;10.77;4.20;;;;;;;14.34;63.81;100109.94;4994329;28;20050;-72
2021/05/15 02:34:10;;;;;;;6.88;4.07;;;;;;;13.91;65.32;100089.31;5059198;23;20191;-72
2021/05/15 02:36:36;;;;;;;8.15;4.00;;;;;;;14.01;65.73;100118.91;5027884;28;20044;-72
2021/05/15 02:39:03;;;;;;;9.50;4.13;;;;;;;13.96;65.77;100117.94;5031413;28;20393;-71
2021/05/15 02:41:28;;;;;;;6.95;3.95;;;;;;;13.91;66.05;100124.78;5031800;28;20405;-72
2021/05/15 02:43:54;;;;;;;6.97;4.22;;;;;;;13.94;65.93;100123.97;5031457;28;20040;-72
2021/05/15 02:46:19;;;;;;;10.50;4.05;;;;;;;13.74;66.34;100122.78;5031651;28;20026;-74
2021/05/15 02:48:45;;;;;;;8.95;4.55;;;;;;;13.74;66.03;100124.47;5030558;28;20025;-75
2021/05/15 02:51:11;;;;;;;9.80;4.47;;;;;;;13.89;66.03;100124.75;5031538;28;20029;-69
2021/05/15 02:53:36;;;;;;;12.55;4.05;;;;;;;13.60;66.38;100139.78;5031475;28;20087;-69
2021/05/15 02:56:02;;;;;;;20.70;4.13;;;;;;;13.25;66.69;100094.13;5031604;28;20048;-73
2021/05/15 02:58:27;;;;;;;6.57;4.00;;;;;;;13.50;66.77;100135.25;5031295;28;20030;-70
2021/05/15 03:00:53;;;;;;;10.40;3.53;;;;;;;13.43;66.76;100137.75;5031374;28;20029;-70
2021/05/15 03:03:18;;;;;;;17.73;4.10;;;;;;;13.49;66.66;100139.56;5031111;28;20029;-74
2021/05/15 03:05:44;;;;;;;11.77;4.30;;;;;;;13.44;66.80;100151.56;5030322;28;20041;-73
2021/05/15 03:08:09;;;;;;;10.43;4.10;;;;;;;13.41;66.74;100143.75;5031301;28;20554;-69
2021/05/15 03:10:35;;;;;;;7.38;3.85;;;;;;;13.37;66.74;100132.44;5031123;28;20053;-70
2021/05/15 03:13:00;;;;;;;11.20;3.72;;;;;;;13.17;66.71;100105.19;5031388;28;20025;-73
2021/05/15 03:15:26;;;;;;;9.43;4.57;;;;;;;13.54;66.45;100145.72;5030006;28;20457;-74
2021/05/15 03:17:52;;;;;;;9.80;4.15;;;;;;;13.40;66.21;100106.53;5031414;28;20028;-75
2021/05/15 03:20:23;;;;;;;12.55;4.20;;;;;;;13.75;65.67;100154.75;5030831;28;20037;-71
2021/05/15 03:22:50;;;;;;;12.05;4.30;;;;;;;13.84;65.41;100159.25;5030850;28;20032;-72
2021/05/15 03:25:17;;;;;;;10.25;4.25;;;;;;;13.73;65.38;100138.28;5023564;28;20045;-72
2021/05/15 03:27:42;;;;;;;10.02;4.57;;;;;;;13.86;65.58;100162.75;5015331;28;20053;-70
2021/05/15 03:30:09;;;;;;;13.90;4.90;;;;;;;13.90;65.32;100157.63;5015152;28;20069;-73
2021/05/15 03:32:35;;;;;;;12.75;5.15;;;;;;;13.93;65.11;100148.16;5014825;28;20040;-72
2021/05/15 03:35:01;;;;;;;11.60;5.22;;;;;;;13.98;64.84;100151.72;5014696;28;20034;-69
2021/05/15 03:37:26;;;;;;;12.38;4.95;;;;;;;14.03;64.60;100163.94;5014933;28;20539;-72
2021/05/15 03:39:52;;;;;;;10.60;4.60;;;;;;;14.10;64.86;100167.50;5018191;28;20060;-69
2021/05/15 03:42:18;;;;;;;9.38;4.65;;;;;;;14.13;64.32;100159.78;5016999;28;20025;-72
2021/05/15 03:44:43;;;;;;;12.73;4.80;;;;;;;13.84;64.65;100122.91;5034593;28;20507;-71
2021/05/15 03:47:09;;;;;;;12.10;4.43;;;;;;;13.68;65.70;100125.25;5034247;28;20030;-72
2021/05/15 03:49:34;;;;;;;10.82;4.00;;;;;;;13.82;66.88;100166.13;5034360;28;20156;-72
2021/05/15 03:52:00;;;;;;;8.68;3.72;;;;;;;13.86;68.12;100165.34;5034332;28;20106;-70
2021/05/15 03:54:26;;;;;;;6.63;3.00;;;;;;;13.89;69.16;100171.47;5034825;28;20494;-73
2021/05/15 03:56:52;;;;;;;8.25;2.70;;;;;;;13.93;69.18;100168.91;5034491;28;20029;-73
2021/05/15 03:59:17;;;;;;;10.18;3.65;;;;;;;14.02;67.14;100169.97;5034040;28;20487;-70
2021/05/15 04:01:43;;;;;;;10.73;4.10;;;;;;;14.02;66.71;100169.09;5034208;28;20025;-70
2021/05/15 04:04:09;;;;;;;8.38;4.25;;;;;;;14.01;66.62;100167.34;5034224;28;20464;-73
2021/05/15 04:06:34;;;;;;;10.95;4.53;;;;;;;13.98;67.35;100175.97;5033921;28;20088;-72
2021/05/15 04:09:00;;;;;;;12.98;4.53;;;;;;;13.95;67.03;100155.13;4999074;28;20488;-73
2021/05/15 04:11:34;;;;;;;9.52;4.32;;;;;;;13.84;68.18;100164.44;5015142;28;20543;-69
2021/05/15 04:17:01;;;;;;;9.68;4.95;;;;;;;13.82;67.69;100172.19;5013989;28;20080;-70
2021/05/15 04:19:28;;;;;;;18.25;4.30;;;;;;;13.76;67.73;100164.28;5017080;28;20099;-71
2021/05/15 04:21:55;;;;;;;13.32;4.28;;;;;;;13.85;68.10;100181.75;5030780;28;20443;-73
2021/05/15 04:24:24;;;;;;;15.80;4.45;;;;;;;13.82;68.13;100163.53;5033223;28;20021;-70
2021/05/15 04:26:54;;;;;;;34.92;5.78;;;;;;;13.79;69.07;100168.66;5033298;28;20041;-72
2021/05/15 04:29:20;;;;;;;;;;;;;;;13.81;69.50;100167.00;5034069;28;20407;-69
2021/05/15 04:31:47;;;;;;;18.25;5.10;;;;;;;13.87;69.52;100164.50;5015579;28;19971;-70
2021/05/15 04:34:12;;;;;;;13.77;4.90;;;;;;;13.90;69.50;100177.53;5033349;28;20408;-69
2021/05/15 04:36:38;;;;;;;13.70;5.70;;;;;;;14.03;69.88;100161.34;5032289;28;20030;-70
2021/05/15 04:39:04;;;;;;;14.10;5.55;;;;;;;14.11;69.75;100161.47;5033571;28;20033;-70
2021/05/15 04:41:29;;;;;;;19.17;6.03;;;;;;;14.20;69.67;100172.00;5033236;28;20590;-70
2021/05/15 04:43:55;;;;;;;21.40;5.53;;;;;;;14.21;69.99;100167.69;5033061;28;20040;-69
2021/05/15 04:46:20;;;;;;;19.88;5.80;;;;;;;14.26;70.30;100160.84;5033250;28;20084;-74
2021/05/15 04:48:46;;;;;;;30.48;6.25;;;;;;;13.92;69.99;100098.00;5033400;28;20025;-72
2021/05/15 04:51:11;;;;;;;23.55;6.28;;;;;;;14.47;69.64;100175.06;5033370;28;20029;-70
2021/05/15 04:53:38;;;;;;;29.27;6.03;;;;;;;14.62;68.88;100166.63;5033411;28;20407;-76
2021/05/15 04:56:04;;;;;;;23.35;6.05;;;;;;;14.23;68.99;100119.25;5033090;28;20037;-72
2021/05/15 04:58:30;;;;;;;24.33;5.80;;;;;;;14.50;68.84;100159.50;5032987;28;20029;-70
2021/05/15 05:00:56;;;;;;;19.63;5.85;;;;;;;14.60;68.84;100165.72;5033186;28;20037;-72
2021/05/15 05:03:23;;;;;;;29.88;6.65;;;;;;;14.60;69.50;100150.13;5032967;28;20037;-70
2021/05/15 05:05:49;;;;;;;20.95;6.57;;;;;;;14.78;70.21;100166.03;5032714;28;20463;-73
2021/05/15 05:08:14;;;;;;;15.70;6.03;;;;;;;14.92;71.00;100165.38;5032809;28;20053;-70
2021/05/15 05:10:40;;;;;;;21.27;6.45;;;;;;;14.65;70.70;100118.19;5033206;28;20026;-70
2021/05/15 05:13:06;;;;;;;16.20;6.10;;;;;;;14.93;70.74;100159.28;5032908;28;20041;-72
2021/05/15 05:15:32;;;;;;;14.60;5.90;;;;;;;14.94;71.20;100148.94;5032703;28;20675;-70
2021/05/15 05:17:58;;;;;;;23.38;6.57;;;;;;;14.93;71.07;100149.78;5033030;28;20116;-69
2021/05/15 05:20:24;;;;;;;20.00;6.50;;;;;;;14.94;70.46;100150.66;5015367;28;20175;-70
2021/05/15 05:22:50;;;;;;;16.38;5.55;;;;;;;14.96;70.35;100155.03;5032339;28;20048;-70
2021/05/15 05:25:18;;;;;;;19.52;6.30;;;;;;;14.79;70.06;100109.72;5032541;28;20496;-73
2021/05/15 05:27:48;;;;;;;22.40;6.55;;;;;;;15.10;70.54;100146.53;5032539;28;20037;-70
2021/05/15 05:30:18;;;;;;;;;;;;;;;15.09;69.97;100153.47;5033075;28;20033;-70
2021/05/15 05:32:44;;;;;;;;;;;;;;;15.09;69.31;100152.59;5032834;28;20367;-74
2021/05/15 05:35:10;;;;;;;22.20;6.20;;;;;;;15.15;68.98;100150.06;5032541;28;20023;-70
2021/05/15 05:37:36;;;;;;;19.08;6.05;;;;;;;15.12;69.31;100118.84;5032369;28;20030;-75
2021/05/15 05:40:04;;;;;;;20.23;5.82;;;;;;;15.33;68.09;100162.44;5032555;28;20486;-73
2021/05/15 05:42:30;;;;;;;17.50;5.60;;;;;;;15.42;67.57;100153.88;5031915;28;20585;-72
2021/05/15 05:44:56;;;;;;;26.02;5.45;;;;;;;15.58;66.88;100150.59;5032132;28;20080;-70
2021/05/15 05:47:22;;;;;;;22.60;6.25;;;;;;;15.73;66.90;100155.09;5032117;28;20484;-69
2021/05/15 05:49:47;;;;;;;18.98;5.20;;;;;;;15.85;66.18;100155.25;5031939;28;20079;-72
2021/05/15 05:52:14;;;;;;;31.92;9.73;;;;;;;15.82;66.35;100110.97;5032360;28;20072;-70
2021/05/15 05:54:39;;;;;;;30.52;11.43;;;;;;;16.21;64.95;100152.13;5031847;28;20032;-72
2021/05/15 05:57:05;;;;;;;34.67;8.32;;;;;;;16.33;64.20;100147.00;5032383;28;20025;-70
2021/05/15 05:59:31;;;;;;;23.17;6.60;;;;;;;16.41;63.21;100139.25;5032089;28;20499;-72
2021/05/15 06:01:56;;;;;;;20.92;6.38;;;;;;;16.29;63.10;100104.44;5031611;28;20171;-70
2021/05/15 06:04:21;;;;;;;28.98;7.80;;;;;;;16.65;62.77;100144.66;5030844;28;20495;-70
2021/05/15 06:06:47;;;;;;;24.00;7.43;;;;;;;16.77;62.87;100148.19;5031168;28;20026;-70
2021/05/15 06:09:15;;;;;;;21.42;5.40;;;;;;;16.86;62.52;100142.16;5031212;28;20028;-70
2021/05/15 06:11:40;;;;;;;27.15;6.20;;;;;;;16.95;62.32;100148.34;5009768;28;20392;-69
2021/05/15 06:14:06;;;;;;;17.98;4.85;;;;;;;17.08;62.00;100138.84;5029302;28;20033;-73
2021/05/15 06:16:31;;;;;;;29.95;5.40;;;;;;;17.17;61.45;100132.81;5012458;28;20026;-69
2021/05/15 06:18:57;;;;;;;25.15;6.30;;;;;;;17.20;63.57;100137.19;5012134;28;20065;-72
2021/05/15 06:21:22;;;;;;;32.13;5.82;;;;;;;17.19;60.54;100133.69;5012095;28;20045;-74
2021/05/15 06:23:48;;;;;;;36.13;7.07;;;;;;;17.12;60.87;100138.00;5011594;28;20469;-74
2021/05/15 06:26:13;;;;;;;36.90;7.50;;;;;;;17.15;61.08;100139.75;5011952;28;20046;-70
2021/05/15 06:28:39;;;;;;;30.98;6.28;;;;;;;17.21;60.19;100131.97;4994130;28;20030;-76
2021/05/15 06:31:05;;;;;;;32.92;6.95;;;;;;;17.15;60.07;100139.75;5001334;28;20037;-69
2021/05/15 06:33:31;;;;;;;32.10;7.10;;;;;;;17.16;59.95;100131.06;5031331;28;20076;-72
2021/05/15 06:35:57;;;;;;;30.10;7.10;;;;;;;17.45;59.26;100120.72;5031441;28;20030;-70
2021/05/15 06:38:23;;;;;;;37.10;7.68;;;;;;;17.55;58.02;100113.78;5031191;28;20537;-75
2021/05/15 08:49:08;;;;;;;6.22;2.20;;;;;;;21.91;48.76;100004.31;5068718;27;968134;-71
2021/05/15 08:51:35;;;;;;;6.28;1.75;;;;;;;22.21;48.16;100023.06;5086364;28;20049;-72
2021/05/15 08:54:00;;;;;;;6.05;1.85;;;;;;;22.39;50.04;100024.50;5089596;28;20040;-73
2021/05/15 08:56:28;;;;;;;4.22;1.70;;;;;;;22.45;46.89;100006.84;5091120;28;20118;-71
2021/05/15 08:58:54;;;;;;;5.35;1.73;;;;;;;22.86;43.92;99995.50;5084566;28;20119;-71
2021/05/15 09:01:21;;;;;;;6.75;1.60;;;;;;;23.15;42.77;100008.00;5083415;28;20028;-71
2021/05/15 09:03:46;;;;;;;4.93;1.60;;;;;;;23.35;40.16;99991.81;5086697;28;20024;-72
2021/05/15 09:06:12;;;;;;;10.73;1.80;;;;;;;23.00;41.15;99937.28;5067725;28;20111;-72
2021/05/15 09:08:39;;;;;;;6.30;1.95;;;;;;;23.61;42.61;99998.19;5067892;28;20028;-72
2021/05/15 09:11:05;;;;;;;4.97;1.40;;;;;;;23.68;39.93;99998.91;5085360;28;20489;-72
2021/05/15 09:13:31;;;;;;;9.32;1.73;;;;;;;23.86;37.86;99993.19;5084003;28;20055;-73
2021/05/15 09:16:04;;;;;;;4.35;1.50;;;;;;;23.39;38.42;99932.88;5092826;28;20118;-72
2021/05/15 09:18:33;;;;;;;2.33;1.20;;;;;;;23.18;38.09;99928.09;5065662;28;20399;-73
2021/05/15 09:21:02;;;;;;;12.55;1.70;;;;;;;23.53;39.89;99995.75;5104017;28;20038;-74
2021/05/15 09:23:37;;;;;;;4.30;1.13;;;;;;;23.66;39.20;99990.19;5105763;28;20028;-73
2021/05/15 09:26:06;;;;;;;3.83;1.25;;;;;;;23.71;37.80;99989.19;5102100;28;20029;-71
2021/05/15 09:28:38;;;;;;;4.35;1.30;;;;;;;23.79;37.65;99974.91;5100808;28;20039;-72
2021/05/15 09:31:15;;;;;;;4.53;1.33;;;;;;;23.86;39.14;99984.41;5103991;28;20129;-73
2021/05/15 09:33:43;;;;;;;4.88;1.20;;;;;;;24.09;37.29;99980.31;5102666;28;20046;-71
2021/05/15 09:36:17;;;;;;;3.72;1.23;;;;;;;24.17;36.32;99978.34;5105419;28;20030;-71
2021/05/15 09:38:43;;;;;;;4.32;1.50;;;;;;;24.32;36.98;99962.09;5103076;28;20036;-73
2021/05/15 09:41:10;;;;;;;5.20;1.40;;;;;;;24.27;36.89;99920.94;5088194;28;20031;-73
2021/05/15 09:43:36;;;;;;;5.63;1.30;;;;;;;24.36;35.67;99960.22;5103640;28;20045;-73
2021/05/15 09:46:02;;;;;;;10.82;1.35;;;;;;;24.52;33.98;99907.88;5105115;28;20031;-73
2021/05/15 09:48:36;;;;;;;4.95;1.20;;;;;;;24.71;33.10;99909.09;5085235;28;20043;-73
2021/05/15 09:51:14;;;;;;;5.38;1.30;;;;;;;24.79;33.71;99947.59;5099257;28;20028;-73
2021/05/15 09:53:39;;;;;;;3.78;1.48;;;;;;;24.58;33.40;99897.13;5102731;28;20024;-74
2021/05/15 09:56:05;;;;;;;9.02;1.98;;;;;;;25.16;34.16;99954.34;5103995;28;20385;-73
2021/05/15 09:58:31;;;;;;;6.28;1.40;;;;;;;25.04;34.39;99903.66;5076422;28;20502;-73
2021/05/15 10:00:56;;;;;;;2.72;1.00;;;;;;;24.91;34.46;99939.31;5088845;28;20077;-73
2021/05/15 10:03:24;;;;;;;5.53;1.20;;;;;;;25.14;32.12;99940.34;5090788;28;20046;-71
2021/05/15 10:06:14;;;;;;;8.68;1.40;;;;;;;25.11;32.18;99940.44;5090037;28;20090;-72
2021/05/15 10:08:40;;;;;;;5.28;1.15;;;;;;;24.68;32.63;99874.84;5090456;28;20111;-73
2021/05/15 10:11:07;;;;;;;5.35;1.48;;;;;;;24.98;31.77;99942.59;5091553;28;20027;-72
2021/05/15 10:13:33;;;;;;;2.13;0.95;;;;;;;24.85;32.52;99918.38;5091792;28;20035;-72
2021/05/15 10:16:00;;;;;;;4.03;1.20;;;;;;;24.65;32.35;99914.56;5090882;28;20036;-73
2021/05/15 10:18:27;;;;;;;3.60;1.20;;;;;;;24.66;34.12;99921.56;5089777;28;20031;-71
2021/05/15 10:20:54;;;;;;;6.55;1.30;;;;;;;24.43;33.74;99898.47;5087830;28;20038;-71
2021/05/15 10:23:22;;;;;;;4.57;1.17;;;;;;;24.72;33.53;99870.34;5071749;28;20027;-70
2021/05/15 10:25:49;;;;;;;4.72;1.40;;;;;;;25.22;33.77;99916.31;5090493;28;20016;-72
2021/05/15 10:28:26;;;;;;;3.67;1.35;;;;;;;25.10;34.38;99904.41;5090034;28;20112;-70
2021/05/15 10:31:05;;;;;;;4.28;1.50;;;;;;;25.43;34.91;99910.34;5054321;28;20017;-70
2021/05/15 10:33:31;;;;;;;5.18;1.50;;;;;;;25.77;34.59;99903.91;5087661;28;20416;-72
2021/05/15 10:35:57;;;;;;;5.07;1.65;;;;;;;25.51;34.72;99916.25;5071610;28;20047;-70
2021/05/15 10:38:30;;;;;;;5.25;1.40;;;;;;;25.49;34.94;99910.16;5089697;28;20115;-71
2021/05/15 10:41:07;;;;;;;7.40;1.70;;;;;;;25.33;35.64;99900.97;5091170;28;20063;-71
2021/05/15 10:43:34;;;;;;;4.70;1.42;;;;;;;25.20;36.31;99888.19;5072150;28;20020;-71
2021/05/15 10:46:31;;;;;;;5.78;1.52;;;;;;;25.13;38.39;99876.06;5090419;28;20035;-72
2021/05/15 10:49:11;;;;;;;5.25;1.70;;;;;;;25.17;37.56;99900.63;5089520;28;20058;-71
2021/05/15 10:51:48;;;;;;;5.63;1.38;;;;;;;24.48;38.52;99869.31;5089280;28;20028;-70
2021/05/15 10:54:17;;;;;;;4.80;1.40;;;;;;;24.42;39.37;99883.53;5088546;28;20024;-70
2021/05/15 10:56:48;;;;;;;5.28;1.30;;;;;;;24.47;39.56;99881.63;5086967;28;20046;-69
2021/05/15 10:59:19;;;;;;;5.35;1.65;;;;;;;24.59;39.59;99882.19;5070164;28;20040;-70
2021/05/15 11:01:56;;;;;;;3.35;1.20;;;;;;;24.51;38.87;99871.84;5090793;28;20032;-70
2021/05/15 11:04:28;;;;;;;5.63;2.15;;;;;;;24.49;39.67;99865.78;5085519;28;20025;-72
2021/05/15 11:07:11;;;;;;;3.60;1.50;;;;;;;24.48;39.43;99858.75;5070471;28;20497;-70
2021/05/15 11:09:58;;;;;;;3.63;1.38;;;;;;;24.59;39.00;99853.16;5052998;28;20093;-72
2021/05/15 11:12:25;;;;;;;5.00;1.60;;;;;;;24.90;38.62;99846.91;5079904;28;20036;-72
2021/05/15 11:14:58;;;;;;;8.77;2.15;;;;;;;24.81;39.91;99806.72;5070095;28;20024;-72
2021/05/15 11:17:26;;;;;;;9.93;1.77;;;;;;;25.54;36.84;99866.84;5080314;28;20470;-72
2021/05/15 11:20:01;;;;;;;10.35;2.15;;;;;;;25.42;36.72;99802.94;5069502;28;20020;-71
2021/05/15 11:22:42;;;;;;;6.03;1.55;;;;;;;25.64;36.80;99853.25;5067758;28;20028;-72
2021/05/15 11:25:16;;;;;;;7.57;1.40;;;;;;;24.37;35.99;99696.41;5083946;28;20039;-73
2021/05/15 11:27:52;;;;;;;2.47;1.02;;;;;;;25.16;36.06;99851.34;5079876;28;20439;-70
2021/05/15 11:30:22;;;;;;;4.93;1.80;;;;;;;24.79;37.54;99856.06;5065982;28;20032;-70
2021/05/15 11:33:00;;;;;;;6.22;1.73;;;;;;;24.66;39.40;99839.75;5085813;28;20055;-71
2021/05/15 11:35:28;;;;;;;10.43;1.52;;;;;;;24.77;37.59;99823.56;5066802;28;20496;-72
2021/05/15 11:38:04;;;;;;;5.68;1.73;;;;;;;24.86;37.83;99843.50;5087702;28;20048;-70
2021/05/15 11:40:30;;;;;;;5.20;1.42;;;;;;;24.79;37.24;99829.66;5090803;28;20024;-71
2021/05/15 11:42:56;;;;;;;13.80;2.05;;;;;;;24.85;37.15;99832.09;5070138;28;20031;-74
2021/05/15 11:45:31;;;;;;;4.43;1.30;;;;;;;25.04;37.39;99831.50;5087128;28;20023;-72
2021/05/15 11:48:19;;;;;;;3.00;1.30;;;;;;;25.01;36.76;99829.81;5086880;28;20043;-73
2021/05/15 11:51:05;;;;;;;5.30;1.25;;;;;;;24.95;37.29;99816.81;5066775;28;20449;-74
2021/05/15 11:53:34;;;;;;;7.00;1.63;;;;;;;25.12;36.89;99828.59;4968463;28;20108;-71
2021/05/15 11:55:59;;;;;;;3.93;1.53;;;;;;;25.19;35.88;99811.63;4982004;28;20046;-68
2021/05/15 11:58:25;;;;;;;6.43;1.60;;;;;;;25.24;37.60;99808.84;4983349;28;20297;-70
2021/05/15 12:00:51;;;;;;;5.07;2.22;;;;;;;25.32;36.80;99812.94;4978293;28;20227;-70
2021/05/15 12:03:24;;;;;;;7.50;1.55;;;;;;;25.20;37.18;99810.72;4985073;28;20041;-69
2021/05/15 12:05:51;;;;;;;5.18;1.40;;;;;;;24.80;38.17;99798.81;4984838;28;20038;-70
2021/05/15 12:08:18;;;;;;;9.73;1.50;;;;;;;24.73;38.57;99807.88;4987236;28;20030;-72
2021/05/15 12:10:46;;;;;;;6.60;1.58;;;;;;;24.80;39.01;99814.66;4966953;28;20071;-70
2021/05/15 12:13:13;;;;;;;2.95;1.40;;;;;;;24.55;38.14;99796.97;4988289;28;20514;-70
2021/05/15 12:15:43;;;;;;;4.13;1.80;;;;;;;24.59;37.86;99793.31;4970611;28;20038;-68
2021/05/15 12:18:11;;;;;;;4.47;1.40;;;;;;;24.52;38.21;99778.59;4968743;28;20050;-72
2021/05/15 12:20:43;;;;;;;4.30;1.38;;;;;;;24.69;36.66;99786.00;4986867;28;20061;-70
2021/05/15 12:23:14;;;;;;;5.47;1.40;;;;;;;24.56;36.93;99780.19;4984643;28;20124;-70
2021/05/15 12:25:42;;;;;;;4.45;1.30;;;;;;;24.45;37.62;99783.19;4986318;28;20499;-70
2021/05/15 12:28:19;;;;;;;3.25;1.20;;;;;;;24.32;37.39;99768.66;4985165;28;20023;-71
2021/05/15 12:30:45;;;;;;;5.85;1.65;;;;;;;24.36;37.88;99784.34;5043119;28;20411;-70
2021/05/15 12:33:10;;;;;;;4.53;1.50;;;;;;;24.23;37.79;99768.03;5088344;28;20024;-73
2021/05/15 12:35:36;;;;;;;3.60;1.27;;;;;;;24.01;37.62;99730.94;5089034;28;20034;-70
2021/05/15 12:38:07;;;;;;;5.80;1.27;;;;;;;24.11;37.62;99762.28;5071319;28;20413;-71
2021/05/15 12:40:33;;;;;;;7.10;1.80;;;;;;;24.09;37.74;99788.69;5037450;28;20033;-74
2021/05/15 12:43:09;;;;;;;5.18;1.55;;;;;;;23.88;38.06;99769.91;5060306;28;20827;-68
2021/05/15 12:45:39;;;;;;;8.05;1.38;;;;;;;23.86;38.57;99770.88;5055403;28;20494;-74
2021/05/15 12:48:40;;;;;;;3.47;1.40;;;;;;;23.81;38.76;99778.91;5064404;28;20597;-71
2021/05/15 12:51:12;;;;;;;5.85;1.70;;;;;;;23.70;38.92;99776.59;5069057;28;20040;-70
2021/05/15 12:53:39;;;;;;;2.95;1.30;;;;;;;23.63;39.32;99775.03;5041908;28;20521;-73
2021/05/15 12:56:12;;;;;;;3.22;1.38;;;;;;;23.51;39.17;99762.22;5035359;28;20120;-71
2021/05/15 12:58:38;;;;;;;5.03;1.50;;;;;;;23.51;39.17;99770.13;5034898;28;20044;-70
2021/05/15 13:01:06;;;;;;;3.63;1.50;;;;;;;23.41;39.45;99756.34;5034224;28;20036;-72
2021/05/15 13:03:34;;;;;;;10.52;1.60;;;;;;;23.53;39.81;99760.41;5050455;28;20480;-71
2021/05/15 13:06:00;;;;;;;7.93;1.50;;;;;;;23.58;39.88;99759.34;5048086;28;20037;-71
2021/05/15 13:08:35;;;;;;;6.38;2.05;;;;;;;23.29;39.22;99696.97;5048212;28;20021;-70
2021/05/15 13:11:11;;;;;;;5.05;1.77;;;;;;;23.59;40.44;99749.69;5047519;28;20037;-70
2021/05/15 13:13:37;;;;;;;6.22;1.63;;;;;;;23.64;39.97;99768.00;5048060;28;20036;-69
2021/05/15 13:16:04;;;;;;;4.15;1.40;;;;;;;23.46;38.93;99748.31;5047559;28;20025;-71
2021/05/15 13:18:30;;;;;;;7.85;1.77;;;;;;;23.49;38.74;99758.75;5048014;28;20094;-70
2021/05/15 13:20:56;;;;;;;3.83;1.20;;;;;;;23.46;38.86;99758.84;5047731;28;20087;-71
2021/05/15 13:23:22;;;;;;;8.52;2.00;;;;;;;23.43;38.44;99760.66;5030559;28;20025;-70
2021/05/15 13:25:48;;;;;;;4.38;1.20;;;;;;;23.40;38.80;99749.31;5035095;28;20069;-72
2021/05/15 13:28:13;;;;;;;5.20;1.60;;;;;;;23.37;39.30;99745.00;5048127;28;20053;-69
2021/05/15 13:30:41;;;;;;;7.70;1.63;;;;;;;23.35;39.44;99752.13;5054789;28;20169;-70
2021/05/15 13:33:07;;;;;;;3.47;1.40;;;;;;;23.38;38.89;99748.53;5088356;28;20016;-70
2021/05/15 13:35:32;;;;;;;5.30;1.90;;;;;;;23.18;39.80;99720.06;5093816;28;20043;-71
2021/05/15 13:37:58;;;;;;;5.07;1.60;;;;;;;23.34;39.97;99758.28;5094054;28;20070;-71
2021/05/15 13:40:24;;;;;;;7.32;1.70;;;;;;;22.95;40.93;99718.91;5076205;28;20500;-71
2021/05/15 13:42:50;;;;;;;4.82;1.85;;;;;;;23.12;40.97;99762.38;5076261;28;20036;-70
2021/05/15 13:45:18;;;;;;;6.60;1.70;;;;;;;23.15;41.73;99764.91;5075641;28;20024;-70
2021/05/15 13:47:50;;;;;;;6.55;1.55;;;;;;;23.01;41.81;99745.06;5083772;28;20046;-72